sensor_id;sensor_type;location;lat;lon;timestamp;P1;durP1;ratioP1;P2;durP2;ratioP2
2213;SDS011;1113;42.018;23.986;2023-02-07T00:00:14;16.95;;;8.45;;
2213;SDS011;1113;42.018;23.986;2023-02-07T00:02:43;12.20;;;6.78;;
2213;SDS011;1113;42.018;23.986;2023-02-07T00:05:10;12.73;;;7.25;;
2213;SDS011;1113;42.018;23.986;2023-02-07T00:07:38;15.15;;;7.70;;
2213;SDS011;1113;42.018;23.986;2023-02-07T00:10:05;13.93;;;8.07;;
2213;SDS011;1113;42.018;23.986;2023-02-07T00:12:33;16.95;;;8.70;;
2213;SDS011;1113;42.018;23.986;2023-02-07T00:15:04;15.40;;;9.05;;
2213;SDS011;1113;42.018;23.986;2023-02-07T00:17:32;13.27;;;7.03;;
2213;SDS011;1113;42.018;23.986;2023-02-07T00:19:59;12.25;;;6.72;;
2213;SDS011;1113;42.018;23.986;2023-02-07T00:22:26;10.57;;;6.60;;
2213;SDS011;1113;42.018;23.986;2023-02-07T00:24:53;14.88;;;7.93;;
2213;SDS011;1113;42.018;23.986;2023-02-07T00:27:20;10.80;;;6.55;;
2213;SDS011;1113;42.018;23.986;2023-02-07T00:29:46;11.68;;;7.30;;
2213;SDS011;1113;42.018;23.986;2023-02-07T00:32:15;11.27;;;7.25;;
2213;SDS011;1113;42.018;23.986;2023-02-07T00:34:42;13.40;;;8.05;;
2213;SDS011;1113;42.018;23.986;2023-02-07T00:37:11;13.70;;;6.95;;
2213;SDS011;1113;42.018;23.986;2023-02-07T00:39:38;12.65;;;7.13;;
2213;SDS011;1113;42.018;23.986;2023-02-07T00:42:04;19.48;;;8.65;;
2213;SDS011;1113;42.018;23.986;2023-02-07T00:44:31;15.98;;;9.25;;
2213;SDS011;1113;42.018;23.986;2023-02-07T00:46:58;21.17;;;10.52;;
2213;SDS011;1113;42.018;23.986;2023-02-07T00:49:27;19.33;;;10.95;;
2213;SDS011;1113;42.018;23.986;2023-02-07T00:51:54;19.10;;;10.38;;
2213;SDS011;1113;42.018;23.986;2023-02-07T00:54:20;22.45;;;11.02;;
2213;SDS011;1113;42.018;23.986;2023-02-07T00:56:47;11.50;;;7.45;;
2213;SDS011;1113;42.018;23.986;2023-02-07T00:59:14;12.77;;;8.95;;
2213;SDS011;1113;42.018;23.986;2023-02-07T01:01:41;13.30;;;7.28;;
2213;SDS011;1113;42.018;23.986;2023-02-07T01:04:07;11.40;;;7.80;;
2213;SDS011;1113;42.018;23.986;2023-02-07T01:06:36;12.98;;;7.57;;
2213;SDS011;1113;42.018;23.986;2023-02-07T01:09:03;11.98;;;7.20;;
2213;SDS011;1113;42.018;23.986;2023-02-07T01:11:31;11.27;;;7.05;;
2213;SDS011;1113;42.018;23.986;2023-02-07T01:13:58;16.65;;;6.90;;
2213;SDS011;1113;42.018;23.986;2023-02-07T01:16:26;14.00;;;7.60;;
2213;SDS011;1113;42.018;23.986;2023-02-07T01:18:54;11.55;;;6.00;;
2213;SDS011;1113;42.018;23.986;2023-02-07T01:21:22;11.07;;;5.78;;
2213;SDS011;1113;42.018;23.986;2023-02-07T01:23:52;9.52;;;6.28;;
2213;SDS011;1113;42.018;23.986;2023-02-07T01:26:20;8.18;;;5.10;;
2213;SDS011;1113;42.018;23.986;2023-02-07T01:28:48;15.50;;;8.65;;
2213;SDS011;1113;42.018;23.986;2023-02-07T01:31:15;13.05;;;7.30;;
2213;SDS011;1113;42.018;23.986;2023-02-07T01:33:41;12.57;;;7.03;;
2213;SDS011;1113;42.018;23.986;2023-02-07T01:36:09;8.93;;;5.70;;
2213;SDS011;1113;42.018;23.986;2023-02-07T01:38:38;12.82;;;6.15;;
2213;SDS011;1113;42.018;23.986;2023-02-07T01:41:06;11.55;;;5.97;;
2213;SDS011;1113;42.018;23.986;2023-02-07T01:43:34;11.00;;;5.75;;
2213;SDS011;1113;42.018;23.986;2023-02-07T01:46:17;11.90;;;6.05;;
2213;SDS011;1113;42.018;23.986;2023-02-07T01:48:44;12.10;;;5.90;;
2213;SDS011;1113;42.018;23.986;2023-02-07T01:51:11;8.95;;;5.07;;
2213;SDS011;1113;42.018;23.986;2023-02-07T01:53:38;8.65;;;6.00;;
2213;SDS011;1113;42.018;23.986;2023-02-07T01:56:07;9.35;;;6.28;;
2213;SDS011;1113;42.018;23.986;2023-02-07T01:58:38;13.85;;;6.35;;
2213;SDS011;1113;42.018;23.986;2023-02-07T02:01:06;10.98;;;5.95;;
2213;SDS011;1113;42.018;23.986;2023-02-07T02:03:41;8.25;;;5.50;;
2213;SDS011;1113;42.018;23.986;2023-02-07T02:06:11;11.95;;;7.70;;
2213;SDS011;1113;42.018;23.986;2023-02-07T02:08:39;12.13;;;7.70;;
2213;SDS011;1113;42.018;23.986;2023-02-07T02:11:13;13.00;;;6.90;;
2213;SDS011;1113;42.018;23.986;2023-02-07T02:14:07;13.13;;;7.45;;
2213;SDS011;1113;42.018;23.986;2023-02-07T02:16:46;7.63;;;4.38;;
2213;SDS011;1113;42.018;23.986;2023-02-07T02:19:31;11.77;;;6.50;;
2213;SDS011;1113;42.018;23.986;2023-02-07T02:22:27;8.48;;;5.93;;
2213;SDS011;1113;42.018;23.986;2023-02-07T02:25:26;7.85;;;4.82;;
2213;SDS011;1113;42.018;23.986;2023-02-07T02:28:23;10.43;;;5.15;;
2213;SDS011;1113;42.018;23.986;2023-02-07T02:31:17;7.72;;;5.65;;
2213;SDS011;1113;42.018;23.986;2023-02-07T02:33:59;8.27;;;5.00;;
2213;SDS011;1113;42.018;23.986;2023-02-07T02:36:32;9.40;;;5.70;;
2213;SDS011;1113;42.018;23.986;2023-02-07T02:39:07;7.60;;;4.05;;
2213;SDS011;1113;42.018;23.986;2023-02-07T02:41:39;10.90;;;5.82;;
2213;SDS011;1113;42.018;23.986;2023-02-07T02:44:12;9.00;;;6.05;;
2213;SDS011;1113;42.018;23.986;2023-02-07T02:46:44;8.93;;;6.00;;
2213;SDS011;1113;42.018;23.986;2023-02-07T02:49:14;13.30;;;6.32;;
2213;SDS011;1113;42.018;23.986;2023-02-07T02:51:43;11.68;;;7.55;;
2213;SDS011;1113;42.018;23.986;2023-02-07T02:54:26;9.75;;;6.57;;
2213;SDS011;1113;42.018;23.986;2023-02-07T02:56:58;9.70;;;6.00;;
2213;SDS011;1113;42.018;23.986;2023-02-07T02:59:47;11.60;;;5.78;;
2213;SDS011;1113;42.018;23.986;2023-02-07T03:02:24;13.65;;;7.20;;
2213;SDS011;1113;42.018;23.986;2023-02-07T03:05:12;16.88;;;9.02;;
2213;SDS011;1113;42.018;23.986;2023-02-07T03:07:53;22.58;;;10.52;;
2213;SDS011;1113;42.018;23.986;2023-02-07T03:10:28;35.58;;;16.40;;
2213;SDS011;1113;42.018;23.986;2023-02-07T03:13:05;22.08;;;11.30;;
2213;SDS011;1113;42.018;23.986;2023-02-07T03:15:43;36.05;;;17.23;;
2213;SDS011;1113;42.018;23.986;2023-02-07T03:18:19;21.10;;;10.48;;
2213;SDS011;1113;42.018;23.986;2023-02-07T03:20:53;17.20;;;9.90;;
2213;SDS011;1113;42.018;23.986;2023-02-07T03:23:26;12.05;;;6.97;;
2213;SDS011;1113;42.018;23.986;2023-02-07T03:25:56;5.55;;;4.55;;
2213;SDS011;1113;42.018;23.986;2023-02-07T03:28:25;11.75;;;6.88;;
2213;SDS011;1113;42.018;23.986;2023-02-07T03:30:58;7.32;;;4.80;;
2213;SDS011;1113;42.018;23.986;2023-02-07T03:33:28;7.85;;;4.32;;
2213;SDS011;1113;42.018;23.986;2023-02-07T03:35:59;8.63;;;4.45;;
2213;SDS011;1113;42.018;23.986;2023-02-07T03:38:32;14.80;;;7.25;;
2213;SDS011;1113;42.018;23.986;2023-02-07T03:41:00;21.33;;;10.07;;
2213;SDS011;1113;42.018;23.986;2023-02-07T03:43:32;10.40;;;6.45;;
2213;SDS011;1113;42.018;23.986;2023-02-07T03:46:02;14.80;;;7.80;;
2213;SDS011;1113;42.018;23.986;2023-02-07T03:48:29;15.60;;;8.10;;
2213;SDS011;1113;42.018;23.986;2023-02-07T03:50:55;13.02;;;7.70;;
2213;SDS011;1113;42.018;23.986;2023-02-07T03:53:24;13.98;;;8.07;;
2213;SDS011;1113;42.018;23.986;2023-02-07T03:55:51;21.42;;;10.27;;
2213;SDS011;1113;42.018;23.986;2023-02-07T03:58:18;20.17;;;13.38;;
2213;SDS011;1113;42.018;23.986;2023-02-07T04:00:45;14.90;;;8.45;;
2213;SDS011;1113;42.018;23.986;2023-02-07T04:03:12;16.08;;;9.02;;
2213;SDS011;1113;42.018;23.986;2023-02-07T04:05:38;10.35;;;6.45;;
2213;SDS011;1113;42.018;23.986;2023-02-07T04:08:07;15.15;;;8.23;;
2213;SDS011;1113;42.018;23.986;2023-02-07T04:10:33;8.88;;;5.35;;
2213;SDS011;1113;42.018;23.986;2023-02-07T04:13:00;8.10;;;6.47;;
2213;SDS011;1113;42.018;23.986;2023-02-07T04:15:27;12.52;;;6.40;;
2213;SDS011;1113;42.018;23.986;2023-02-07T04:17:54;11.40;;;5.45;;
2213;SDS011;1113;42.018;23.986;2023-02-07T04:20:20;13.65;;;7.50;;
2213;SDS011;1113;42.018;23.986;2023-02-07T04:22:47;14.85;;;7.93;;
2213;SDS011;1113;42.018;23.986;2023-02-07T04:25:15;25.75;;;14.80;;
2213;SDS011;1113;42.018;23.986;2023-02-07T04:27:42;29.95;;;13.73;;
2213;SDS011;1113;42.018;23.986;2023-02-07T04:30:10;14.32;;;9.95;;
2213;SDS011;1113;42.018;23.986;2023-02-07T04:32:37;12.95;;;8.07;;
2213;SDS011;1113;42.018;23.986;2023-02-07T04:35:04;19.65;;;10.55;;
2213;SDS011;1113;42.018;23.986;2023-02-07T04:37:31;22.33;;;14.77;;
2213;SDS011;1113;42.018;23.986;2023-02-07T04:39:58;20.83;;;15.27;;
2213;SDS011;1113;42.018;23.986;2023-02-07T04:42:26;15.20;;;9.98;;
2213;SDS011;1113;42.018;23.986;2023-02-07T04:44:53;14.20;;;9.52;;
2213;SDS011;1113;42.018;23.986;2023-02-07T04:47:20;15.93;;;9.35;;
2213;SDS011;1113;42.018;23.986;2023-02-07T04:49:47;11.60;;;8.45;;
2213;SDS011;1113;42.018;23.986;2023-02-07T04:52:13;15.85;;;9.95;;
2213;SDS011;1113;42.018;23.986;2023-02-07T04:54:40;11.77;;;7.50;;
2213;SDS011;1113;42.018;23.986;2023-02-07T04:57:07;16.13;;;8.57;;
2213;SDS011;1113;42.018;23.986;2023-02-07T04:59:35;11.70;;;6.55;;
2213;SDS011;1113;42.018;23.986;2023-02-07T05:02:02;15.20;;;7.88;;
2213;SDS011;1113;42.018;23.986;2023-02-07T05:04:29;10.93;;;6.60;;
2213;SDS011;1113;42.018;23.986;2023-02-07T05:06:55;16.30;;;8.45;;
2213;SDS011;1113;42.018;23.986;2023-02-07T05:09:22;13.95;;;7.80;;
2213;SDS011;1113;42.018;23.986;2023-02-07T05:12:16;15.18;;;7.43;;
2213;SDS011;1113;42.018;23.986;2023-02-07T05:14:46;18.95;;;10.70;;
2213;SDS011;1113;42.018;23.986;2023-02-07T05:17:13;18.65;;;9.35;;
2213;SDS011;1113;42.018;23.986;2023-02-07T05:19:40;12.80;;;7.60;;
2213;SDS011;1113;42.018;23.986;2023-02-07T05:22:07;15.93;;;9.10;;
2213;SDS011;1113;42.018;23.986;2023-02-07T05:24:34;8.57;;;5.80;;
2213;SDS011;1113;42.018;23.986;2023-02-07T05:27:01;17.48;;;9.30;;
2213;SDS011;1113;42.018;23.986;2023-02-07T05:29:29;17.63;;;8.88;;
2213;SDS011;1113;42.018;23.986;2023-02-07T05:31:58;17.75;;;9.65;;
2213;SDS011;1113;42.018;23.986;2023-02-07T05:34:42;18.42;;;8.13;;
2213;SDS011;1113;42.018;23.986;2023-02-07T05:37:09;14.25;;;8.65;;
2213;SDS011;1113;42.018;23.986;2023-02-07T05:39:35;18.48;;;11.80;;
2213;SDS011;1113;42.018;23.986;2023-02-07T05:42:02;15.13;;;8.73;;
2213;SDS011;1113;42.018;23.986;2023-02-07T05:44:29;17.65;;;8.80;;
2213;SDS011;1113;42.018;23.986;2023-02-07T05:46:57;13.68;;;7.38;;
2213;SDS011;1113;42.018;23.986;2023-02-07T05:49:24;12.90;;;7.28;;
2213;SDS011;1113;42.018;23.986;2023-02-07T05:51:51;9.07;;;5.25;;
2213;SDS011;1113;42.018;23.986;2023-02-07T05:54:17;8.30;;;5.25;;
2213;SDS011;1113;42.018;23.986;2023-02-07T05:56:44;12.25;;;5.25;;
2213;SDS011;1113;42.018;23.986;2023-02-07T05:59:11;14.50;;;8.68;;
2213;SDS011;1113;42.018;23.986;2023-02-07T06:01:38;24.73;;;13.45;;
2213;SDS011;1113;42.018;23.986;2023-02-07T06:04:06;21.25;;;10.63;;
2213;SDS011;1113;42.018;23.986;2023-02-07T06:06:33;27.83;;;16.15;;
2213;SDS011;1113;42.018;23.986;2023-02-07T06:09:00;25.60;;;14.30;;
2213;SDS011;1113;42.018;23.986;2023-02-07T06:11:26;24.20;;;13.93;;
2213;SDS011;1113;42.018;23.986;2023-02-07T06:13:53;18.02;;;9.85;;
2213;SDS011;1113;42.018;23.986;2023-02-07T06:16:20;18.02;;;10.43;;
2213;SDS011;1113;42.018;23.986;2023-02-07T06:18:47;18.23;;;11.35;;
2213;SDS011;1113;42.018;23.986;2023-02-07T06:21:15;15.00;;;10.27;;
2213;SDS011;1113;42.018;23.986;2023-02-07T06:23:42;16.98;;;11.50;;
2213;SDS011;1113;42.018;23.986;2023-02-07T06:26:11;12.70;;;8.35;;
2213;SDS011;1113;42.018;23.986;2023-02-07T06:28:37;16.73;;;10.45;;
2213;SDS011;1113;42.018;23.986;2023-02-07T06:31:04;19.65;;;10.32;;
2213;SDS011;1113;42.018;23.986;2023-02-07T06:33:31;12.73;;;8.10;;
2213;SDS011;1113;42.018;23.986;2023-02-07T06:35:58;21.20;;;10.10;;
2213;SDS011;1113;42.018;23.986;2023-02-07T06:38:26;21.90;;;10.95;;
2213;SDS011;1113;42.018;23.986;2023-02-07T06:40:53;27.38;;;13.85;;
2213;SDS011;1113;42.018;23.986;2023-02-07T06:43:19;19.88;;;9.70;;
2213;SDS011;1113;42.018;23.986;2023-02-07T06:45:46;12.00;;;6.50;;
2213;SDS011;1113;42.018;23.986;2023-02-07T06:48:13;16.05;;;8.60;;
2213;SDS011;1113;42.018;23.986;2023-02-07T06:50:40;12.00;;;7.43;;
2213;SDS011;1113;42.018;23.986;2023-02-07T06:53:06;20.30;;;12.60;;
2213;SDS011;1113;42.018;23.986;2023-02-07T06:55:37;22.80;;;10.68;;
2213;SDS011;1113;42.018;23.986;2023-02-07T06:58:05;24.42;;;11.65;;
2213;SDS011;1113;42.018;23.986;2023-02-07T07:00:32;26.60;;;13.77;;
2213;SDS011;1113;42.018;23.986;2023-02-07T07:02:59;22.30;;;11.85;;
2213;SDS011;1113;42.018;23.986;2023-02-07T07:05:26;16.05;;;9.93;;
2213;SDS011;1113;42.018;23.986;2023-02-07T07:07:53;15.13;;;8.30;;
2213;SDS011;1113;42.018;23.986;2023-02-07T07:10:20;10.82;;;7.32;;
2213;SDS011;1113;42.018;23.986;2023-02-07T07:12:48;11.05;;;7.25;;
2213;SDS011;1113;42.018;23.986;2023-02-07T07:15:16;9.75;;;6.40;;
2213;SDS011;1113;42.018;23.986;2023-02-07T07:17:43;14.52;;;8.60;;
2213;SDS011;1113;42.018;23.986;2023-02-07T07:20:10;13.88;;;9.00;;
2213;SDS011;1113;42.018;23.986;2023-02-07T07:22:37;9.10;;;6.47;;
2213;SDS011;1113;42.018;23.986;2023-02-07T07:25:04;16.70;;;11.13;;
2213;SDS011;1113;42.018;23.986;2023-02-07T07:27:31;12.02;;;7.70;;
2213;SDS011;1113;42.018;23.986;2023-02-07T07:29:59;18.48;;;10.10;;
2213;SDS011;1113;42.018;23.986;2023-02-07T07:32:26;18.92;;;11.73;;
2213;SDS011;1113;42.018;23.986;2023-02-07T07:34:53;20.65;;;12.85;;
2213;SDS011;1113;42.018;23.986;2023-02-07T07:37:20;13.25;;;6.38;;
2213;SDS011;1113;42.018;23.986;2023-02-07T07:39:47;8.05;;;5.70;;
2213;SDS011;1113;42.018;23.986;2023-02-07T07:42:13;7.32;;;5.00;;
2213;SDS011;1113;42.018;23.986;2023-02-07T07:44:40;10.10;;;6.38;;
2213;SDS011;1113;42.018;23.986;2023-02-07T07:47:08;19.48;;;8.93;;
2213;SDS011;1113;42.018;23.986;2023-02-07T07:49:35;19.27;;;9.82;;
2213;SDS011;1113;42.018;23.986;2023-02-07T07:52:02;38.55;;;19.95;;
2213;SDS011;1113;42.018;23.986;2023-02-07T07:54:29;31.27;;;14.90;;
2213;SDS011;1113;42.018;23.986;2023-02-07T07:56:56;30.60;;;15.18;;
2213;SDS011;1113;42.018;23.986;2023-02-07T07:59:23;29.88;;;15.95;;
2213;SDS011;1113;42.018;23.986;2023-02-07T08:01:49;26.60;;;13.43;;
2213;SDS011;1113;42.018;23.986;2023-02-07T08:04:18;20.40;;;12.02;;
2213;SDS011;1113;42.018;23.986;2023-02-07T08:06:45;17.73;;;9.45;;
2213;SDS011;1113;42.018;23.986;2023-02-07T08:09:12;22.17;;;11.35;;
2213;SDS011;1113;42.018;23.986;2023-02-07T08:11:39;25.15;;;16.02;;
2213;SDS011;1113;42.018;23.986;2023-02-07T08:14:05;20.55;;;11.68;;
2213;SDS011;1113;42.018;23.986;2023-02-07T08:16:32;22.15;;;13.35;;
2213;SDS011;1113;42.018;23.986;2023-02-07T08:18:59;17.70;;;9.93;;
2213;SDS011;1113;42.018;23.986;2023-02-07T08:21:27;20.90;;;13.25;;
2213;SDS011;1113;42.018;23.986;2023-02-07T08:23:55;24.65;;;10.93;;
2213;SDS011;1113;42.018;23.986;2023-02-07T08:26:21;13.63;;;7.97;;
2213;SDS011;1113;42.018;23.986;2023-02-07T08:28:48;10.73;;;6.15;;
2213;SDS011;1113;42.018;23.986;2023-02-07T08:31:16;5.80;;;4.25;;
2213;SDS011;1113;42.018;23.986;2023-02-07T08:33:44;11.90;;;6.32;;
2213;SDS011;1113;42.018;23.986;2023-02-07T08:36:10;10.88;;;5.72;;
2213;SDS011;1113;42.018;23.986;2023-02-07T08:38:39;10.15;;;5.82;;
2213;SDS011;1113;42.018;23.986;2023-02-07T08:41:06;7.47;;;4.65;;
2213;SDS011;1113;42.018;23.986;2023-02-07T08:43:33;11.18;;;6.28;;
2213;SDS011;1113;42.018;23.986;2023-02-07T08:45:59;14.63;;;5.00;;
2213;SDS011;1113;42.018;23.986;2023-02-07T08:48:26;6.75;;;4.43;;
2213;SDS011;1113;42.018;23.986;2023-02-07T08:50:53;10.07;;;6.25;;
2213;SDS011;1113;42.018;23.986;2023-02-07T08:53:20;14.25;;;7.53;;
2213;SDS011;1113;42.018;23.986;2023-02-07T08:55:49;11.88;;;6.95;;
2213;SDS011;1113;42.018;23.986;2023-02-07T08:58:16;8.27;;;5.85;;
2213;SDS011;1113;42.018;23.986;2023-02-07T09:00:45;11.63;;;7.25;;
2213;SDS011;1113;42.018;23.986;2023-02-07T09:03:11;14.05;;;7.90;;
2213;SDS011;1113;42.018;23.986;2023-02-07T09:05:39;12.30;;;6.50;;
2213;SDS011;1113;42.018;23.986;2023-02-07T09:08:06;9.45;;;6.35;;
2213;SDS011;1113;42.018;23.986;2023-02-07T09:10:32;12.65;;;8.20;;
2213;SDS011;1113;42.018;23.986;2023-02-07T09:13:01;13.95;;;8.88;;
2213;SDS011;1113;42.018;23.986;2023-02-07T09:15:28;8.82;;;6.25;;
2213;SDS011;1113;42.018;23.986;2023-02-07T09:17:55;6.72;;;4.75;;
2213;SDS011;1113;42.018;23.986;2023-02-07T09:20:22;10.73;;;5.90;;
2213;SDS011;1113;42.018;23.986;2023-02-07T09:22:48;7.50;;;5.05;;
2213;SDS011;1113;42.018;23.986;2023-02-07T09:25:32;5.07;;;2.95;;
2213;SDS011;1113;42.018;23.986;2023-02-07T09:28:03;13.32;;;8.02;;
2213;SDS011;1113;42.018;23.986;2023-02-07T09:30:30;13.48;;;7.15;;
2213;SDS011;1113;42.018;23.986;2023-02-07T09:32:57;5.50;;;3.13;;
2213;SDS011;1113;42.018;23.986;2023-02-07T09:35:24;12.35;;;4.57;;
2213;SDS011;1113;42.018;23.986;2023-02-07T09:37:51;6.55;;;3.92;;
2213;SDS011;1113;42.018;23.986;2023-02-07T09:40:18;7.13;;;4.30;;
2213;SDS011;1113;42.018;23.986;2023-02-07T09:42:47;6.85;;;4.88;;
2213;SDS011;1113;42.018;23.986;2023-02-07T09:45:22;10.18;;;6.13;;
2213;SDS011;1113;42.018;23.986;2023-02-07T09:47:53;8.45;;;5.28;;
2213;SDS011;1113;42.018;23.986;2023-02-07T09:50:33;8.15;;;5.40;;
2213;SDS011;1113;42.018;23.986;2023-02-07T09:53:04;11.95;;;7.97;;
2213;SDS011;1113;42.018;23.986;2023-02-07T09:55:39;12.30;;;6.72;;
2213;SDS011;1113;42.018;23.986;2023-02-07T09:58:11;7.97;;;5.50;;
2213;SDS011;1113;42.018;23.986;2023-02-07T10:00:41;7.65;;;4.28;;
2213;SDS011;1113;42.018;23.986;2023-02-07T10:03:14;9.52;;;5.15;;
2213;SDS011;1113;42.018;23.986;2023-02-07T10:05:45;13.07;;;6.10;;
2213;SDS011;1113;42.018;23.986;2023-02-07T10:08:17;14.32;;;7.85;;
2213;SDS011;1113;42.018;23.986;2023-02-07T10:10:45;31.33;;;13.07;;
2213;SDS011;1113;42.018;23.986;2023-02-07T10:13:26;19.40;;;8.20;;
2213;SDS011;1113;42.018;23.986;2023-02-07T10:16:12;19.60;;;10.15;;
2213;SDS011;1113;42.018;23.986;2023-02-07T10:18:52;16.85;;;8.65;;
2213;SDS011;1113;42.018;23.986;2023-02-07T10:21:24;30.80;;;15.38;;
2213;SDS011;1113;42.018;23.986;2023-02-07T10:24:02;12.75;;;7.70;;
2213;SDS011;1113;42.018;23.986;2023-02-07T10:26:42;7.30;;;4.65;;
2213;SDS011;1113;42.018;23.986;2023-02-07T10:29:17;10.57;;;7.07;;
2213;SDS011;1113;42.018;23.986;2023-02-07T10:32:00;24.02;;;8.65;;
2213;SDS011;1113;42.018;23.986;2023-02-07T10:34:30;26.33;;;11.70;;
2213;SDS011;1113;42.018;23.986;2023-02-07T10:37:01;16.92;;;7.63;;
2213;SDS011;1113;42.018;23.986;2023-02-07T10:39:43;17.10;;;9.27;;
2213;SDS011;1113;42.018;23.986;2023-02-07T10:42:14;20.90;;;10.50;;
2213;SDS011;1113;42.018;23.986;2023-02-07T10:44:44;10.48;;;5.30;;
2213;SDS011;1113;42.018;23.986;2023-02-07T10:50:36;16.90;;;8.60;;
2213;SDS011;1113;42.018;23.986;2023-02-07T10:53:06;21.15;;;13.15;;
2213;SDS011;1113;42.018;23.986;2023-02-07T10:55:34;13.65;;;8.85;;
2213;SDS011;1113;42.018;23.986;2023-02-07T10:58:04;17.70;;;10.50;;
2213;SDS011;1113;42.018;23.986;2023-02-07T11:00:32;15.85;;;8.38;;
2213;SDS011;1113;42.018;23.986;2023-02-07T11:03:02;17.92;;;8.80;;
2213;SDS011;1113;42.018;23.986;2023-02-07T11:05:34;17.45;;;10.23;;
2213;SDS011;1113;42.018;23.986;2023-02-07T11:08:04;9.05;;;6.03;;
2213;SDS011;1113;42.018;23.986;2023-02-07T11:10:43;10.98;;;6.55;;
2213;SDS011;1113;42.018;23.986;2023-02-07T11:13:11;9.27;;;6.43;;
2213;SDS011;1113;42.018;23.986;2023-02-07T11:15:45;11.30;;;7.05;;
2213;SDS011;1113;42.018;23.986;2023-02-07T11:18:38;14.50;;;8.77;;
2213;SDS011;1113;42.018;23.986;2023-02-07T11:21:18;15.95;;;7.88;;
2213;SDS011;1113;42.018;23.986;2023-02-07T11:23:49;13.85;;;7.63;;
2213;SDS011;1113;42.018;23.986;2023-02-07T11:26:17;14.75;;;9.18;;
2213;SDS011;1113;42.018;23.986;2023-02-07T11:28:45;15.52;;;10.05;;
2213;SDS011;1113;42.018;23.986;2023-02-07T11:31:16;11.57;;;6.60;;
2213;SDS011;1113;42.018;23.986;2023-02-07T11:33:49;17.23;;;10.70;;
2213;SDS011;1113;42.018;23.986;2023-02-07T11:36:20;13.15;;;7.82;;
2213;SDS011;1113;42.018;23.986;2023-02-07T11:38:52;9.30;;;5.00;;
2213;SDS011;1113;42.018;23.986;2023-02-07T11:41:27;8.10;;;4.97;;
2213;SDS011;1113;42.018;23.986;2023-02-07T11:43:57;7.35;;;4.93;;
2213;SDS011;1113;42.018;23.986;2023-02-07T11:46:29;13.13;;;9.05;;
2213;SDS011;1113;42.018;23.986;2023-02-07T11:49:01;14.18;;;7.72;;
2213;SDS011;1113;42.018;23.986;2023-02-07T11:51:29;10.55;;;6.50;;
2213;SDS011;1113;42.018;23.986;2023-02-07T11:53:59;12.05;;;6.80;;
2213;SDS011;1113;42.018;23.986;2023-02-07T11:56:29;12.75;;;7.35;;
2213;SDS011;1113;42.018;23.986;2023-02-07T11:58:58;6.68;;;4.20;;
2213;SDS011;1113;42.018;23.986;2023-02-07T12:01:31;5.90;;;4.03;;
2213;SDS011;1113;42.018;23.986;2023-02-07T12:04:01;7.50;;;3.92;;
2213;SDS011;1113;42.018;23.986;2023-02-07T12:06:36;7.32;;;4.30;;
2213;SDS011;1113;42.018;23.986;2023-02-07T12:09:08;6.80;;;4.80;;
2213;SDS011;1113;42.018;23.986;2023-02-07T12:11:45;11.55;;;7.03;;
2213;SDS011;1113;42.018;23.986;2023-02-07T12:14:15;10.95;;;6.43;;
2213;SDS011;1113;42.018;23.986;2023-02-07T12:16:50;6.95;;;4.65;;
2213;SDS011;1113;42.018;23.986;2023-02-07T12:19:21;10.20;;;6.00;;
2213;SDS011;1113;42.018;23.986;2023-02-07T12:21:55;14.73;;;6.88;;
2213;SDS011;1113;42.018;23.986;2023-02-07T12:24:26;11.55;;;6.55;;
2213;SDS011;1113;42.018;23.986;2023-02-07T12:26:58;14.68;;;7.47;;
2213;SDS011;1113;42.018;23.986;2023-02-07T12:29:33;10.82;;;6.35;;
2213;SDS011;1113;42.018;23.986;2023-02-07T12:32:10;7.97;;;5.10;;
2213;SDS011;1113;42.018;23.986;2023-02-07T12:34:42;10.23;;;6.85;;
2213;SDS011;1113;42.018;23.986;2023-02-07T12:37:16;7.78;;;4.70;;
2213;SDS011;1113;42.018;23.986;2023-02-07T12:39:48;9.57;;;6.00;;
2213;SDS011;1113;42.018;23.986;2023-02-07T12:42:23;9.25;;;5.10;;
2213;SDS011;1113;42.018;23.986;2023-02-07T12:44:58;9.27;;;6.03;;
2213;SDS011;1113;42.018;23.986;2023-02-07T12:47:40;9.10;;;5.18;;
2213;SDS011;1113;42.018;23.986;2023-02-07T12:50:31;6.22;;;4.10;;
2213;SDS011;1113;42.018;23.986;2023-02-07T12:53:18;13.13;;;7.00;;
2213;SDS011;1113;42.018;23.986;2023-02-07T12:55:57;8.60;;;4.68;;
2213;SDS011;1113;42.018;23.986;2023-02-07T12:58:37;9.00;;;6.05;;
2213;SDS011;1113;42.018;23.986;2023-02-07T13:01:14;9.35;;;5.45;;
2213;SDS011;1113;42.018;23.986;2023-02-07T13:04:00;8.05;;;4.53;;
2213;SDS011;1113;42.018;23.986;2023-02-07T13:07:06;14.23;;;5.57;;
2213;SDS011;1113;42.018;23.986;2023-02-07T13:09:44;7.60;;;4.63;;
2213;SDS011;1113;42.018;23.986;2023-02-07T13:12:18;10.15;;;5.95;;
2213;SDS011;1113;42.018;23.986;2023-02-07T13:14:56;5.07;;;2.85;;
2213;SDS011;1113;42.018;23.986;2023-02-07T13:17:39;8.48;;;5.32;;
2213;SDS011;1113;42.018;23.986;2023-02-07T13:20:26;11.57;;;6.75;;
2213;SDS011;1113;42.018;23.986;2023-02-07T13:23:04;10.40;;;6.32;;
2213;SDS011;1113;42.018;23.986;2023-02-07T13:25:40;10.48;;;5.38;;
2213;SDS011;1113;42.018;23.986;2023-02-07T13:28:11;11.15;;;6.60;;
2213;SDS011;1113;42.018;23.986;2023-02-07T13:30:43;9.68;;;5.25;;
2213;SDS011;1113;42.018;23.986;2023-02-07T13:33:19;13.68;;;6.65;;
2213;SDS011;1113;42.018;23.986;2023-02-07T13:35:53;8.80;;;5.07;;
2213;SDS011;1113;42.018;23.986;2023-02-07T13:38:29;6.43;;;4.25;;
2213;SDS011;1113;42.018;23.986;2023-02-07T13:41:05;7.47;;;4.70;;
2213;SDS011;1113;42.018;23.986;2023-02-07T13:43:45;7.07;;;4.20;;
2213;SDS011;1113;42.018;23.986;2023-02-07T13:46:24;8.07;;;4.85;;
2213;SDS011;1113;42.018;23.986;2023-02-07T13:49:10;10.77;;;6.15;;
2213;SDS011;1113;42.018;23.986;2023-02-07T13:51:45;10.57;;;7.47;;
2213;SDS011;1113;42.018;23.986;2023-02-07T13:54:25;14.80;;;8.13;;
2213;SDS011;1113;42.018;23.986;2023-02-07T13:57:00;10.38;;;6.80;;
2213;SDS011;1113;42.018;23.986;2023-02-07T14:00:03;11.00;;;7.78;;
2213;SDS011;1113;42.018;23.986;2023-02-07T14:02:37;9.40;;;6.55;;
2213;SDS011;1113;42.018;23.986;2023-02-07T14:05:07;18.40;;;9.40;;
2213;SDS011;1113;42.018;23.986;2023-02-07T14:07:37;13.65;;;7.63;;
2213;SDS011;1113;42.018;23.986;2023-02-07T14:10:05;25.85;;;11.82;;
2213;SDS011;1113;42.018;23.986;2023-02-07T14:12:34;19.70;;;10.88;;
2213;SDS011;1113;42.018;23.986;2023-02-07T14:15:36;23.35;;;10.98;;
2213;SDS011;1113;42.018;23.986;2023-02-07T14:18:37;6.72;;;4.45;;
2213;SDS011;1113;42.018;23.986;2023-02-07T14:24:03;8.75;;;4.72;;
2213;SDS011;1113;42.018;23.986;2023-02-07T14:26:55;8.60;;;6.10;;
2213;SDS011;1113;42.018;23.986;2023-02-07T14:32:25;11.07;;;6.70;;
2213;SDS011;1113;42.018;23.986;2023-02-07T14:35:01;13.32;;;8.38;;
2213;SDS011;1113;42.018;23.986;2023-02-07T14:37:36;14.25;;;6.28;;
2213;SDS011;1113;42.018;23.986;2023-02-07T14:40:17;6.38;;;4.43;;
2213;SDS011;1113;42.018;23.986;2023-02-07T14:42:53;11.25;;;6.65;;
2213;SDS011;1113;42.018;23.986;2023-02-07T14:45:22;19.67;;;11.85;;
2213;SDS011;1113;42.018;23.986;2023-02-07T14:47:49;19.08;;;11.00;;
2213;SDS011;1113;42.018;23.986;2023-02-07T14:50:17;18.35;;;11.35;;
2213;SDS011;1113;42.018;23.986;2023-02-07T14:52:48;23.58;;;13.80;;
2213;SDS011;1113;42.018;23.986;2023-02-07T14:55:17;21.67;;;12.52;;
2213;SDS011;1113;42.018;23.986;2023-02-07T14:57:53;17.92;;;11.63;;
2213;SDS011;1113;42.018;23.986;2023-02-07T15:00:26;22.75;;;12.45;;
2213;SDS011;1113;42.018;23.986;2023-02-07T15:02:57;10.00;;;5.70;;
2213;SDS011;1113;42.018;23.986;2023-02-07T15:05:28;12.00;;;7.40;;
2213;SDS011;1113;42.018;23.986;2023-02-07T15:08:05;11.82;;;8.18;;
2213;SDS011;1113;42.018;23.986;2023-02-07T15:10:35;11.50;;;7.10;;
2213;SDS011;1113;42.018;23.986;2023-02-07T15:13:13;15.07;;;9.10;;
2213;SDS011;1113;42.018;23.986;2023-02-07T15:15:46;10.63;;;6.88;;
2213;SDS011;1113;42.018;23.986;2023-02-07T15:18:16;11.45;;;6.88;;
2213;SDS011;1113;42.018;23.986;2023-02-07T15:20:47;14.30;;;9.90;;